Nearby METAR Reports

 

KSJC - San Jose, California, USA
Distance from station: NØ 14km
Oppdatert: 22/05/2022 08:53
Klart
Klart
 Vind fra NNV
Vind: NNV 9 km/h
Temperatur: 14°C
Duggpunkt: 8°C
Fuktighet: 67%
Barometer: 1016.3 hPa
Clouds: Klart
Visibility: 16 km
2022/05/22 06:53 KSJC 220653Z 33005KT 10SM CLR 14/08 A3001 RMK AO2 SLP162 T01390083
KNUQ - Moffett Nas/Mtn, California, USA
Distance from station: N 14km
Oppdatert: 22/05/2022 09:35
Klart
Klart
 Vind fra N
Vind: N 7 km/h
Temperatur: 13°C
Duggpunkt: 9°C
Fuktighet: 77%
Barometer: 1016.3 hPa
Clouds: Klart
Visibility: 13 km
2022/05/22 07:35 KNUQ 220735Z AUTO 36004KT 8SM CLR 13/09 A3001 RMK AO2
 
KPAO - Palo Alto, California, USA
Distance from station: NNV 23km
Oppdatert: 22/05/2022 05:47
NOT Current
Klart
Klart
 Vind fra NV
Vind: NV 11 km/h
Temperatur: 14°C
Duggpunkt: 9°C
Fuktighet: 72%
Barometer: 1015.6 hPa
Clouds: Klart
Visibility: 16 km
2022/05/22 03:47 KPAO 220347Z 32006KT 10SM SKC 14/09 A2999 RMK LAST
KRHV - San Jose/Reid, California, USA
Distance from station: ØNØ 19km
Oppdatert: 22/05/2022 06:58
NOT Current
Klart
Klart
 Vind fra NV
Vind: NV 7 km/h
Temperatur: 16°C
Duggpunkt: 8°C
Fuktighet: 59%
Barometer: 1016.3 hPa
Clouds: Klart
Visibility: 16 km
2022/05/22 04:58 KRHV 220458Z 31004KT 10SM SKC 16/08 A3001 RMK LAST
 
KOAK - Oakland, California, USA
Distance from station: NNV 50km
Oppdatert: 22/05/2022 08:53
Klart
Klart
 Vind fra ØNØ
Vind: ØNØ 7 km/h
Temperatur: 11°C
Duggpunkt: 8°C
Fuktighet: 82%
Barometer: 1016.6 hPa
Clouds: Klart
Visibility: 16 km
2022/05/22 06:53 KOAK 220653Z 06004KT 10SM CLR 11/08 A3002 RMK AO2 SLP164 T01060078
KSQL - San Carlos Airpo, California, USA
Distance from station: NV 34km
Oppdatert: 22/05/2022 09:35
Klart
Klart
 Vind fra calm
Vind: Stille
Temperatur: 13°C
Duggpunkt: 7°C
Fuktighet: 67%
Barometer: 1016.6 hPa
Clouds: Klart
Visibility: 16 km
2022/05/22 07:35 KSQL 220735Z AUTO 00000KT 10SM CLR 13/07 A3002 RMK AO2
 
KSFO - San Francisco, California, USA
Distance from station: NV 49km
Oppdatert: 22/05/2022 08:56
Klart
Klart
 Vind fra VNV
Vind: VNV 17 km/h
Temperatur: 12°C
Duggpunkt: 8°C
Fuktighet: 77%
Barometer: 1016.3 hPa
Clouds: Klart
Visibility: 14 km
2022/05/22 06:56 KSFO 220656Z 30009KT 9SM CLR 12/08 A3001 RMK AO2 SLP162 T01170078
KE16 - San Martin, California, USA
Distance from station: ØSØ 43km
Oppdatert: 22/05/2022 09:35
Klart
Klart
 Vind fra calm
Vind: Stille
Temperatur: 11°C
Duggpunkt: 7°C
Fuktighet: 77%
Barometer: 1017.3 hPa
Clouds: Klart
Visibility: 16 km
2022/05/22 07:35 KE16 220735Z AUTO 00000KT 10SM CLR 11/07 A3004 RMK AO2 PWINO PNO
 
KWVI - Watsonville, California, USA
Distance from station: SSØ 44km
Oppdatert: 22/05/2022 09:34
Delvis skyet
Delvis skyet
 Vind fra NNØ
Vind: NNØ 6 km/h
Temperatur: 8°C
Duggpunkt: 8°C
Fuktighet: 100%
Barometer: 1017.3 hPa
Clouds: Delvis skyet
Visibility: 13 km
Cloud details: Delvis skyet 213 m
2022/05/22 07:34 KWVI 220734Z AUTO 03003KT 8SM SCT007 08/08 A3004 RMK AO2 T00830078
KHAF - Half Moon Bay, California, USA
Distance from station: VNV 50km
Oppdatert: 22/05/2022 09:35
Mist, Hovedsaklig skyet
Mist, Hovedsaklig skyet
 Vind fra calm
Vind: Stille
Temperatur: 7°C
Duggpunkt: 7°C
Fuktighet: 100%
Barometer: 1017.3 hPa
Oversikt: Mist
Clouds: Hovedsaklig skyet
Visibility: 8 km
Cloud details: Hovedsaklig skyet 274 m
2022/05/22 07:35 KHAF 220735Z AUTO 00000KT 5SM BR BKN009 07/07 A3004 RMK AO2
 
KHWD - Hayward, California, USA
Distance from station: N 44km
Oppdatert: 22/05/2022 08:54
Klart
Klart
 Vind fra V
Vind: V 9 km/h
Temperatur: 13°C
Duggpunkt: 9°C
Fuktighet: 77%
Barometer: 1016.3 hPa
Clouds: Klart
Visibility: 16 km
2022/05/22 06:54 KHWD 220654Z 26005KT 10SM CLR 13/09 A3001 RMK AO2 SLP172 T01280089
KLVK - Livermore, California, USA
Distance from station: NNØ 51km
Oppdatert: 22/05/2022 08:53
Klart
Klart
 Vind fra NV
Vind: NV 11 km/h
Temperatur: 15°C
Duggpunkt: 7°C
Fuktighet: 59%
Barometer: 1015.6 hPa
Clouds: Klart
Visibility: 16 km
2022/05/22 06:53 KLVK 220653Z AUTO 31006KT 10SM CLR 15/07 A2999 RMK AO2 SLP152 T01500067